createdAt,value
2023-05-14T00:00:29.458Z,98.65
2023-05-14T00:02:56.443Z,98.27
2023-05-14T00:05:23.444Z,97.94
2023-05-14T00:07:50.372Z,98.75
2023-05-14T00:10:19.152Z,98.21
2023-05-14T00:12:46.044Z,97.57
2023-05-14T00:15:12.779Z,98.97
2023-05-14T00:17:39.605Z,98.71
2023-05-14T00:20:07.369Z,98.19
2023-05-14T00:22:34.505Z,97.44
2023-05-14T00:25:01.273Z,97.65
2023-05-14T00:27:27.958Z,98.54
2023-05-14T00:29:54.739Z,99.16
2023-05-14T00:32:21.518Z,99.28
2023-05-14T00:34:48.311Z,99.05
2023-05-14T00:37:15.033Z,99.05
2023-05-14T00:39:41.740Z,99.49
2023-05-14T00:42:08.514Z,100.00
2023-05-14T00:44:35.918Z,99.02
2023-05-14T00:47:02.729Z,100.00
2023-05-14T00:49:29.536Z,99.88
2023-05-14T00:51:59.029Z,99.88
2023-05-14T00:54:26.142Z,99.59
2023-05-14T00:56:52.899Z,100.00
2023-05-14T00:59:19.634Z,100.00
2023-05-14T01:01:46.395Z,99.85
2023-05-14T01:04:13.095Z,100.00
2023-05-14T01:07:08.915Z,99.34
2023-05-14T01:10:03.098Z,99.74
2023-05-14T01:12:51.394Z,100.00
2023-05-14T01:15:21.625Z,100.00
2023-05-14T01:18:08.637Z,100.00
2023-05-14T01:20:36.096Z,100.00
2023-05-14T01:23:03.331Z,100.00
2023-05-14T01:25:30.913Z,100.00
2023-05-14T01:28:09.334Z,100.00
2023-05-14T01:30:54.674Z,100.00
2023-05-14T01:33:21.973Z,100.00
2023-05-14T01:35:49.064Z,100.00
2023-05-14T01:38:18.312Z,100.00
2023-05-14T01:40:45.817Z,100.00
2023-05-14T01:43:12.641Z,100.00
2023-05-14T01:45:39.500Z,100.00
2023-05-14T01:48:06.572Z,100.00
2023-05-14T01:50:33.448Z,100.00
2023-05-14T01:53:00.260Z,100.00
2023-05-14T01:55:27.011Z,100.00
2023-05-14T01:57:53.936Z,100.00
2023-05-14T02:00:22.306Z,100.00
2023-05-14T02:02:49.186Z,100.00
2023-05-14T02:05:15.964Z,100.00
2023-05-14T02:07:42.669Z,100.00
2023-05-14T02:10:09.951Z,100.00
2023-05-14T02:12:36.816Z,100.00
2023-05-14T02:15:04.131Z,100.00
2023-05-14T02:17:30.932Z,100.00
2023-05-14T02:19:57.736Z,100.00
2023-05-14T02:22:24.475Z,100.00
2023-05-14T02:24:51.588Z,100.00
2023-05-14T02:27:18.515Z,100.00
2023-05-14T02:29:45.302Z,100.00
2023-05-14T02:32:12.015Z,100.00
2023-05-14T02:34:38.820Z,100.00
2023-05-14T02:37:05.678Z,100.00
2023-05-14T02:39:32.443Z,100.00
2023-05-14T02:41:59.294Z,100.00
2023-05-14T02:44:26.052Z,100.00
2023-05-14T02:46:52.879Z,100.00
2023-05-14T02:49:19.660Z,100.00
2023-05-14T02:51:46.381Z,100.00
2023-05-14T02:54:13.181Z,100.00
2023-05-14T02:56:39.893Z,100.00
2023-05-14T02:59:06.734Z,100.00
2023-05-14T03:01:33.979Z,100.00
2023-05-14T03:04:01.047Z,100.00
2023-05-14T03:06:27.856Z,100.00
2023-05-14T03:08:54.616Z,100.00
2023-05-14T03:11:21.821Z,100.00
2023-05-14T03:13:48.636Z,100.00
2023-05-14T03:16:15.676Z,100.00
2023-05-14T03:18:42.507Z,100.00
2023-05-14T03:21:09.312Z,100.00
2023-05-14T03:23:36.275Z,100.00
2023-05-14T03:26:03.860Z,100.00
2023-05-14T03:28:30.841Z,100.00
2023-05-14T03:30:57.661Z,98.34
2023-05-14T03:33:24.557Z,98.31
2023-05-14T03:35:51.937Z,97.92
2023-05-14T03:38:18.692Z,97.33
2023-05-14T03:40:45.637Z,96.86
2023-05-14T03:43:12.399Z,96.99
2023-05-14T03:45:39.277Z,96.43
2023-05-14T03:48:06.546Z,95.87
2023-05-14T03:50:33.435Z,95.99
2023-05-14T03:53:00.270Z,94.81
2023-05-14T03:55:27.044Z,94.41
2023-05-14T03:57:53.772Z,93.61
2023-05-14T04:00:21.563Z,92.29
2023-05-14T04:02:48.561Z,92.43
2023-05-14T04:05:15.442Z,92.45
2023-05-14T04:07:42.181Z,91.21
2023-05-14T04:10:09.406Z,90.32
2023-05-14T04:12:36.176Z,89.91
2023-05-14T04:15:03.032Z,90.33
2023-05-14T04:17:29.853Z,89.05
2023-05-14T04:19:56.638Z,87.39
2023-05-14T04:22:23.402Z,86.95
2023-05-14T04:24:50.255Z,85.74
2023-05-14T04:27:21.252Z,85.40
2023-05-14T04:29:48.956Z,84.70
2023-05-14T04:32:15.784Z,84.50
2023-05-14T04:34:42.536Z,83.16
2023-05-14T04:37:09.295Z,83.00
2023-05-14T04:39:36.628Z,82.09
2023-05-14T04:42:03.450Z,81.39
2023-05-14T04:44:30.233Z,81.41
2023-05-14T04:46:57.252Z,80.36
2023-05-14T04:49:24.039Z,79.68
2023-05-14T04:51:50.812Z,79.85
2023-05-14T04:54:17.571Z,79.24
2023-05-14T04:56:44.491Z,79.23
2023-05-14T04:59:11.340Z,77.69
2023-05-14T05:01:38.249Z,77.85
2023-05-14T05:04:05.210Z,77.33
2023-05-14T05:06:32.516Z,76.11
2023-05-14T05:09:01.890Z,75.71
2023-05-14T05:11:28.934Z,74.28
2023-05-14T05:13:55.679Z,59.94
2023-05-14T05:16:22.935Z,58.43
2023-05-14T05:18:49.906Z,55.21
2023-05-14T05:21:16.739Z,53.57
2023-05-14T05:23:43.485Z,56.87
2023-05-14T05:26:10.284Z,55.93
2023-05-14T05:28:37.024Z,54.53
2023-05-14T05:31:03.843Z,55.42
2023-05-14T05:33:30.801Z,55.56
2023-05-14T05:35:57.527Z,58.10
2023-05-14T05:38:24.310Z,53.67
2023-05-14T05:40:51.227Z,53.93
2023-05-14T05:43:18.116Z,50.73
2023-05-14T05:45:46.096Z,52.86
2023-05-14T05:48:12.852Z,49.56
2023-05-14T05:50:39.597Z,46.94
2023-05-14T05:53:06.383Z,48.17
2023-05-14T05:55:33.160Z,50.83
2023-05-14T05:57:59.966Z,47.23
2023-05-14T06:00:26.962Z,45.08
2023-05-14T06:02:53.996Z,45.80
2023-05-14T06:05:20.916Z,42.60
2023-05-14T06:07:47.761Z,42.10
2023-05-14T06:10:14.525Z,44.14
2023-05-14T06:12:41.324Z,43.40
2023-05-14T06:15:08.520Z,41.60
2023-05-14T06:17:35.356Z,41.70
2023-05-14T06:20:02.107Z,40.50
2023-05-14T06:22:28.861Z,39.06
2023-05-14T06:24:55.570Z,39.11
2023-05-14T06:27:22.338Z,38.40
2023-05-14T06:29:49.058Z,36.82
2023-05-14T06:32:17.614Z,35.51
2023-05-14T06:34:44.459Z,35.47
2023-05-14T06:37:11.212Z,35.00
2023-05-14T06:39:38.142Z,34.88
2023-05-14T06:42:05.286Z,34.88
2023-05-14T06:44:32.045Z,34.10
2023-05-14T06:46:58.757Z,33.48
2023-05-14T06:49:25.520Z,34.42
2023-05-14T06:51:52.375Z,33.08
2023-05-14T06:54:20.597Z,32.18
2023-05-14T06:56:47.797Z,32.19
2023-05-14T06:59:14.523Z,33.09
2023-05-14T07:01:41.303Z,31.47
2023-05-14T07:04:08.156Z,33.03
2023-05-14T07:06:34.990Z,30.65
2023-05-14T07:09:01.981Z,31.44
2023-05-14T07:11:28.764Z,31.26
2023-05-14T07:13:55.636Z,30.66
2023-05-14T07:16:22.403Z,31.63
2023-05-14T07:18:49.332Z,29.71
2023-05-14T07:21:16.464Z,28.81
2023-05-14T07:23:43.194Z,30.77
2023-05-14T07:26:09.977Z,28.66
2023-05-14T07:28:36.738Z,29.86
2023-05-14T07:31:09.056Z,28.70
2023-05-14T07:33:36.598Z,27.76
2023-05-14T07:36:03.500Z,28.50
2023-05-14T07:38:30.310Z,28.04
2023-05-14T07:40:57.139Z,27.90
2023-05-14T07:43:23.937Z,27.96
2023-05-14T07:45:50.699Z,27.86
2023-05-14T07:48:17.511Z,26.76
2023-05-14T07:50:44.379Z,26.84
2023-05-14T07:53:11.137Z,26.46
2023-05-14T07:55:38.002Z,26.48
2023-05-14T07:58:04.800Z,26.22
2023-05-14T08:00:31.596Z,26.50
2023-05-14T08:02:58.534Z,26.27
2023-05-14T08:05:26.631Z,25.93
2023-05-14T08:07:53.391Z,27.34
2023-05-14T08:10:20.275Z,25.74
2023-05-14T08:12:47.169Z,25.95
2023-05-14T08:15:14.098Z,25.75
2023-05-14T08:17:41.138Z,24.87
2023-05-14T08:20:09.185Z,25.53
2023-05-14T08:22:36.056Z,25.84
2023-05-14T08:25:03.922Z,23.84
2023-05-14T08:27:30.792Z,25.18
2023-05-14T08:29:57.753Z,25.64
2023-05-14T08:32:24.531Z,25.59
2023-05-14T08:34:51.989Z,24.26
2023-05-14T08:37:18.917Z,25.45
2023-05-14T08:39:45.677Z,23.91
2023-05-14T08:42:13.086Z,23.05
2023-05-14T08:44:45.804Z,26.47
2023-05-14T08:47:12.874Z,31.10
2023-05-14T08:49:43.082Z,31.31
2023-05-14T08:52:09.992Z,30.12
2023-05-14T08:54:36.796Z,31.50
2023-05-14T08:57:04.607Z,27.71
2023-05-14T08:59:31.474Z,26.79
2023-05-14T09:02:01.564Z,24.48
2023-05-14T09:04:29.697Z,28.68
2023-05-14T09:06:56.562Z,27.40
2023-05-14T09:09:23.503Z,25.76
2023-05-14T09:11:55.713Z,22.59
2023-05-14T09:14:23.358Z,23.90
2023-05-14T09:16:50.776Z,25.14
2023-05-14T09:19:19.492Z,26.78
2023-05-14T09:21:46.708Z,24.82
2023-05-14T09:24:21.331Z,24.24
2023-05-14T09:26:57.070Z,23.46
2023-05-14T09:29:27.462Z,25.36
2023-05-14T09:31:54.909Z,24.17
2023-05-14T09:34:25.907Z,27.27
2023-05-14T09:37:03.064Z,26.07
2023-05-14T09:39:29.961Z,26.83
2023-05-14T09:41:57.170Z,26.33
2023-05-14T09:44:24.013Z,27.19
2023-05-14T09:46:51.268Z,24.98
2023-05-14T09:49:18.213Z,24.05
2023-05-14T09:51:45.021Z,21.00
2023-05-14T09:54:12.078Z,26.70
2023-05-14T09:56:39.716Z,23.52
2023-05-14T09:59:06.540Z,25.32
2023-05-14T10:01:33.628Z,28.32
2023-05-14T10:04:00.625Z,26.69
2023-05-14T10:06:28.689Z,27.38
2023-05-14T10:08:56.844Z,27.05
2023-05-14T10:11:28.057Z,23.89
2023-05-14T10:14:39.985Z,24.57
2023-05-14T10:17:06.929Z,23.79
2023-05-14T10:19:35.244Z,26.39
2023-05-14T10:22:07.219Z,25.77
2023-05-14T10:24:34.094Z,24.40
2023-05-14T10:27:01.456Z,23.06
2023-05-14T10:29:34.989Z,25.57
2023-05-14T10:32:08.645Z,27.03
2023-05-14T10:34:40.766Z,25.54
2023-05-14T10:37:10.182Z,24.50
2023-05-14T10:39:59.189Z,29.96
2023-05-14T10:42:32.813Z,25.73
2023-05-14T10:45:07.387Z,24.76
2023-05-14T10:47:42.610Z,29.96
2023-05-14T10:50:11.960Z,26.60
2023-05-14T10:52:38.811Z,29.46
2023-05-14T10:55:10.359Z,26.98
2023-05-14T10:57:39.641Z,30.45
2023-05-14T11:00:09.100Z,35.54
2023-05-14T11:02:37.301Z,34.27
2023-05-14T11:05:05.441Z,34.35
2023-05-14T11:07:36.573Z,36.80
2023-05-14T11:10:07.531Z,40.40
2023-05-14T11:12:38.903Z,42.59
2023-05-14T11:15:09.822Z,44.12
2023-05-14T11:17:37.193Z,44.55
2023-05-14T11:20:05.749Z,41.81
2023-05-14T11:22:32.652Z,40.28
2023-05-14T11:24:59.405Z,38.79
2023-05-14T11:27:26.484Z,35.46
2023-05-14T11:29:53.313Z,32.54
2023-05-14T11:32:20.385Z,30.34
2023-05-14T11:34:47.283Z,29.60
2023-05-14T11:37:15.151Z,30.88
2023-05-14T11:39:49.701Z,28.10
2023-05-14T11:42:18.781Z,28.83
2023-05-14T11:44:52.242Z,25.53
2023-05-14T11:47:20.335Z,28.83
2023-05-14T11:49:47.314Z,27.91
2023-05-14T11:52:14.868Z,30.38
2023-05-14T11:54:42.720Z,34.62
2023-05-14T11:57:19.538Z,34.71
2023-05-14T11:59:46.876Z,33.45
2023-05-14T12:02:18.424Z,37.13
2023-05-14T12:04:46.011Z,36.08
2023-05-14T12:07:15.046Z,38.35
2023-05-14T12:09:49.967Z,37.58
2023-05-14T12:12:22.896Z,40.09
2023-05-14T12:14:50.167Z,39.90
2023-05-14T12:17:21.005Z,42.02
2023-05-14T12:19:49.312Z,41.85
2023-05-14T12:22:18.971Z,39.89
2023-05-14T12:24:58.702Z,35.88
2023-05-14T12:27:29.810Z,34.56
2023-05-14T12:30:19.966Z,33.26
2023-05-14T12:32:51.735Z,29.54
2023-05-14T12:35:19.033Z,28.88
2023-05-14T12:37:45.839Z,31.30
2023-05-14T12:40:12.717Z,31.05
2023-05-14T12:42:39.513Z,33.21
2023-05-14T12:45:08.542Z,33.44
2023-05-14T12:47:36.522Z,37.00
2023-05-14T12:50:03.619Z,42.22
2023-05-14T12:52:37.804Z,44.42
2023-05-14T12:55:07.626Z,42.26
2023-05-14T12:57:35.748Z,39.04
2023-05-14T13:00:06.457Z,40.70
2023-05-14T13:02:33.352Z,35.84
2023-05-14T13:05:10.369Z,33.95
2023-05-14T13:07:37.451Z,34.13
2023-05-14T13:10:05.940Z,31.26
2023-05-14T13:12:33.061Z,32.67
2023-05-14T13:14:59.944Z,32.27
2023-05-14T13:17:26.902Z,32.26
2023-05-14T13:19:53.920Z,34.69
2023-05-14T13:22:20.690Z,38.56
2023-05-14T13:24:47.463Z,39.28
2023-05-14T13:27:14.238Z,38.29
2023-05-14T13:29:41.553Z,36.96
2023-05-14T13:32:08.507Z,36.70
2023-05-14T13:34:35.353Z,34.29
2023-05-14T13:37:02.124Z,32.76
2023-05-14T13:39:28.821Z,33.96
2023-05-14T13:41:56.916Z,29.99
2023-05-14T13:44:24.333Z,31.04
2023-05-14T13:46:51.269Z,32.17
2023-05-14T13:49:18.073Z,33.89
2023-05-14T13:51:44.905Z,33.77
2023-05-14T13:54:11.748Z,36.52
2023-05-14T13:56:38.558Z,37.63
2023-05-14T13:59:06.055Z,38.44
2023-05-14T14:01:32.936Z,43.68
2023-05-14T14:03:59.738Z,46.50
2023-05-14T14:06:27.577Z,48.79
2023-05-14T14:08:54.437Z,49.70
2023-05-14T14:11:21.235Z,51.55
2023-05-14T14:13:48.101Z,45.12
2023-05-14T14:16:15.168Z,43.33
2023-05-14T14:18:43.503Z,47.26
2023-05-14T14:21:10.600Z,48.41
2023-05-14T14:23:37.473Z,47.76
2023-05-14T14:26:04.318Z,41.89
2023-05-14T14:28:31.401Z,43.55
2023-05-14T14:30:58.314Z,43.39
2023-05-14T14:33:25.313Z,46.94
2023-05-14T14:35:52.079Z,45.66
2023-05-14T14:38:19.111Z,47.10
2023-05-14T14:40:46.462Z,46.47
2023-05-14T14:43:13.296Z,49.73
2023-05-14T14:45:40.241Z,46.57
2023-05-14T14:48:28.829Z,48.76
2023-05-14T14:50:55.953Z,49.48
2023-05-14T14:53:22.989Z,50.70
2023-05-14T14:55:50.194Z,46.37
2023-05-14T14:58:18.266Z,47.20
2023-05-14T15:00:45.770Z,44.43
2023-05-14T15:03:12.883Z,45.42
2023-05-14T15:05:40.123Z,46.58
2023-05-14T15:08:07.011Z,44.27
2023-05-14T15:10:37.977Z,46.47
2023-05-14T15:13:06.031Z,49.30
2023-05-14T15:15:33.613Z,49.04
2023-05-14T15:18:00.706Z,47.91
2023-05-14T15:20:27.606Z,45.53
2023-05-14T15:22:54.639Z,48.44
2023-05-14T15:25:21.702Z,47.18
2023-05-14T15:27:49.004Z,47.03
2023-05-14T15:30:16.182Z,47.39
2023-05-14T15:32:43.313Z,49.23
2023-05-14T15:35:10.111Z,49.77
2023-05-14T15:37:41.133Z,48.57
2023-05-14T15:40:09.142Z,49.60
2023-05-14T15:42:40.173Z,50.16
2023-05-14T15:45:07.371Z,48.95
2023-05-14T15:47:34.183Z,50.62
2023-05-14T15:50:01.244Z,43.94
2023-05-14T15:52:28.052Z,48.09
2023-05-14T15:54:56.220Z,49.72
2023-05-14T15:57:23.476Z,49.00
2023-05-14T15:59:50.394Z,51.43
2023-05-14T16:02:17.185Z,48.49
2023-05-14T16:04:46.655Z,48.83
2023-05-14T16:07:13.411Z,52.50
2023-05-14T16:09:40.309Z,50.82
2023-05-14T16:12:07.802Z,50.58
2023-05-14T16:14:35.137Z,49.93
2023-05-14T16:17:02.259Z,48.29
2023-05-14T16:19:29.207Z,49.81
2023-05-14T16:21:56.110Z,52.69
2023-05-14T16:24:22.964Z,54.73
2023-05-14T16:26:49.836Z,52.58
2023-05-14T16:29:16.718Z,50.77
2023-05-14T16:31:43.651Z,48.46
2023-05-14T16:34:10.434Z,50.86
2023-05-14T16:36:37.507Z,46.74
2023-05-14T16:39:08.062Z,49.93
2023-05-14T16:41:35.901Z,49.11
2023-05-14T16:44:02.661Z,50.56
2023-05-14T16:46:30.501Z,48.83
2023-05-14T16:48:57.360Z,50.18
2023-05-14T16:51:24.118Z,50.27
2023-05-14T16:53:51.966Z,48.13
2023-05-14T16:56:18.979Z,51.22
2023-05-14T16:58:45.738Z,48.64
2023-05-14T17:01:12.540Z,52.87
2023-05-14T17:03:39.323Z,55.05
2023-05-14T17:06:06.627Z,54.47
2023-05-14T17:08:35.649Z,57.95
2023-05-14T17:11:05.699Z,54.71
2023-05-14T17:13:33.195Z,55.30
2023-05-14T17:16:00.685Z,53.94
2023-05-14T17:18:27.536Z,53.16
2023-05-14T17:20:54.309Z,53.73
2023-05-14T17:23:21.119Z,55.43
2023-05-14T17:25:47.928Z,58.01
2023-05-14T17:28:14.876Z,55.92
2023-05-14T17:30:41.711Z,53.37
2023-05-14T17:33:08.700Z,52.65
2023-05-14T17:35:36.543Z,52.89
2023-05-14T17:38:03.639Z,52.96
2023-05-14T17:40:30.488Z,49.91
2023-05-14T17:42:57.286Z,50.25
2023-05-14T17:45:24.272Z,49.77
2023-05-14T17:47:51.562Z,50.43
2023-05-14T17:50:18.973Z,51.41
2023-05-14T17:52:46.230Z,53.46
2023-05-14T17:55:13.242Z,53.26
2023-05-14T17:57:40.254Z,51.78
2023-05-14T18:00:08.284Z,56.01
2023-05-14T18:02:35.213Z,56.86
2023-05-14T18:05:02.913Z,56.99
2023-05-14T18:07:34.425Z,57.63
2023-05-14T18:10:01.316Z,57.26
2023-05-14T18:12:28.125Z,60.32
2023-05-14T18:14:54.940Z,61.20
2023-05-14T18:17:21.757Z,64.86
2023-05-14T18:19:48.557Z,67.85
2023-05-14T18:22:15.819Z,66.65
2023-05-14T18:24:44.305Z,70.59
2023-05-14T18:27:11.183Z,69.00
2023-05-14T18:29:37.978Z,69.51
2023-05-14T18:32:05.293Z,71.94
2023-05-14T18:34:32.095Z,74.22
2023-05-14T18:36:58.829Z,75.66
2023-05-14T18:39:25.789Z,76.42
2023-05-14T18:41:52.833Z,78.62
2023-05-14T18:44:19.626Z,81.59
2023-05-14T18:46:46.476Z,84.43
2023-05-14T18:49:13.311Z,80.86
2023-05-14T18:51:40.029Z,73.96
2023-05-14T18:54:06.853Z,76.04
2023-05-14T18:56:34.006Z,75.40
2023-05-14T18:59:00.824Z,77.45
2023-05-14T19:01:28.281Z,78.52
2023-05-14T19:03:55.359Z,81.82
2023-05-14T19:06:22.263Z,82.87
2023-05-14T19:08:49.123Z,85.34
2023-05-14T19:11:16.381Z,85.27
2023-05-14T19:13:46.700Z,85.21
2023-05-14T19:16:13.758Z,87.47
2023-05-14T19:18:40.672Z,89.06
2023-05-14T19:21:07.449Z,90.86
2023-05-14T19:23:34.282Z,91.75
2023-05-14T19:26:01.307Z,92.41
2023-05-14T19:28:28.121Z,91.90
2023-05-14T19:30:54.930Z,93.97
2023-05-14T19:33:21.702Z,95.51
2023-05-14T19:35:48.506Z,95.11
2023-05-14T19:38:15.453Z,96.34
2023-05-14T19:40:43.666Z,98.46
2023-05-14T19:43:11.965Z,100.00
2023-05-14T19:45:39.452Z,100.00
2023-05-14T19:48:06.898Z,100.00
2023-05-14T19:50:33.961Z,100.00
2023-05-14T19:53:01.222Z,100.00
2023-05-14T19:55:28.044Z,100.00
2023-05-14T19:57:54.857Z,100.00
2023-05-14T20:00:22.922Z,100.00
2023-05-14T20:02:49.827Z,100.00
2023-05-14T20:05:16.901Z,100.00
2023-05-14T20:07:43.914Z,100.00
2023-05-14T20:10:12.588Z,100.00
2023-05-14T20:12:39.601Z,100.00
2023-05-14T20:15:06.911Z,100.00
2023-05-14T20:17:33.829Z,100.00
2023-05-14T20:20:01.541Z,100.00
2023-05-14T20:22:28.446Z,100.00
2023-05-14T20:24:55.807Z,100.00
2023-05-14T20:27:22.619Z,100.00
2023-05-14T20:29:51.510Z,100.00
2023-05-14T20:32:18.361Z,100.00
2023-05-14T20:34:45.280Z,100.00
2023-05-14T20:37:12.267Z,100.00
2023-05-14T20:39:39.180Z,100.00
2023-05-14T20:42:06.287Z,100.00
2023-05-14T20:44:33.114Z,100.00
2023-05-14T20:46:59.969Z,100.00
2023-05-14T20:49:26.912Z,100.00
2023-05-14T20:51:53.860Z,100.00
2023-05-14T20:54:21.004Z,100.00
2023-05-14T20:56:47.921Z,100.00
2023-05-14T20:59:14.731Z,100.00
2023-05-14T21:01:42.784Z,100.00
2023-05-14T21:04:09.750Z,100.00
2023-05-14T21:06:36.816Z,100.00
2023-05-14T21:09:03.660Z,100.00
2023-05-14T21:11:30.521Z,100.00
2023-05-14T21:13:57.846Z,100.00
2023-05-14T21:16:24.764Z,100.00
2023-05-14T21:18:51.667Z,100.00
2023-05-14T21:21:21.413Z,100.00
2023-05-14T21:23:48.294Z,100.00
2023-05-14T21:26:15.108Z,100.00
2023-05-14T21:28:42.001Z,100.00
2023-05-14T21:31:08.833Z,100.00
2023-05-14T21:33:35.682Z,100.00
2023-05-14T21:36:02.502Z,100.00
2023-05-14T21:38:29.476Z,100.00
2023-05-14T21:40:56.414Z,100.00
2023-05-14T21:43:23.264Z,100.00
2023-05-14T21:45:50.040Z,100.00
2023-05-14T21:48:17.012Z,100.00
2023-05-14T21:50:43.987Z,100.00
2023-05-14T21:53:10.786Z,100.00
2023-05-14T21:55:37.619Z,100.00
2023-05-14T21:58:04.404Z,100.00
2023-05-14T22:00:31.903Z,100.00
2023-05-14T22:02:59.040Z,100.00
2023-05-14T22:05:26.037Z,100.00
2023-05-14T22:07:53.388Z,100.00
2023-05-14T22:10:20.242Z,100.00
2023-05-14T22:12:47.070Z,100.00
2023-05-14T22:15:13.857Z,100.00
2023-05-14T22:17:41.138Z,100.00
2023-05-14T22:20:10.157Z,100.00
2023-05-14T22:22:37.030Z,100.00
2023-05-14T22:25:04.523Z,100.00
2023-05-14T22:27:31.673Z,100.00
2023-05-14T22:29:58.823Z,100.00
2023-05-14T22:32:25.993Z,100.00
2023-05-14T22:34:52.869Z,100.00
2023-05-14T22:37:19.693Z,100.00
2023-05-14T22:39:46.544Z,100.00
2023-05-14T22:42:13.593Z,100.00
2023-05-14T22:44:40.486Z,100.00
2023-05-14T22:47:07.379Z,100.00
2023-05-14T22:49:34.230Z,100.00
2023-05-14T22:52:01.397Z,100.00
2023-05-14T22:54:28.271Z,100.00
2023-05-14T22:56:55.149Z,100.00
2023-05-14T22:59:23.688Z,100.00
2023-05-14T23:01:51.209Z,100.00
2023-05-14T23:04:18.130Z,100.00
2023-05-14T23:06:45.004Z,100.00
2023-05-14T23:09:11.801Z,100.00
2023-05-14T23:11:38.623Z,100.00
2023-05-14T23:14:05.579Z,100.00
2023-05-14T23:16:32.363Z,100.00
2023-05-14T23:18:59.215Z,100.00
2023-05-14T23:21:26.205Z,100.00
2023-05-14T23:23:52.946Z,100.00
2023-05-14T23:26:19.757Z,100.00
2023-05-14T23:28:47.530Z,100.00
2023-05-14T23:31:14.401Z,100.00
2023-05-14T23:33:41.239Z,100.00
2023-05-14T23:36:08.477Z,100.00
2023-05-14T23:38:35.580Z,100.00
2023-05-14T23:41:02.403Z,100.00
2023-05-14T23:43:29.300Z,100.00
2023-05-14T23:45:56.150Z,100.00
2023-05-14T23:48:23.113Z,100.00
2023-05-14T23:50:50.076Z,100.00
2023-05-14T23:53:17.197Z,100.00
2023-05-14T23:55:43.997Z,100.00
2023-05-14T23:58:10.742Z,100.00
